YRTAC LDRI-LIPV
Flight info
| Callsign | YRTAC |
|---|---|
| Flight time | 1h 44m |
| Altitude | 7000 |
| Route | NAKIT DCT POR DCT OTFOX/N0141F080 DCT RCH/N0139F070 DCT RASUG |
| Aircraft | C182/L-SDGRY/S |
Departure
| Time | 2026-05-07 11:36 |
|---|---|
| Airport | Rijeka Airport (LDRI) |
Arrival
| Time | 2026-05-07 13:21 |
|---|---|
| Airport | Venice-Lido Giovanni Nicelli Airfield (LIPV) |
| Time | Latitude | Longitude | Altitude | Speed | Heading |
|---|---|---|---|---|---|
| 2026-05-07 11:24 | 45.21957 | 14.56989 | 263 ft | 0 kts | 55° |
| 2026-05-07 11:28 | 45.21958 | 14.56995 | 263 ft | 1 kts | 94° |
| 2026-05-07 11:28 | 45.21968 | 14.57009 | 263 ft | 3 kts | 6° |
| 2026-05-07 11:28 | 45.21982 | 14.57002 | 263 ft | 3 kts | 324° |
| 2026-05-07 11:29 | 45.21998 | 14.56984 | 263 ft | 2 kts | 317° |
| 2026-05-07 11:29 | 45.22009 | 14.56954 | 263 ft | 4 kts | 286° |
| 2026-05-07 11:29 | 45.22020 | 14.56900 | 261 ft | 8 kts | 283° |
| 2026-05-07 11:29 | 45.22024 | 14.56880 | 260 ft | 0 kts | 286° |
| 2026-05-07 11:33 | 45.22024 | 14.56877 | 260 ft | 2 kts | 283° |
| 2026-05-07 11:33 | 45.22033 | 14.56833 | 259 ft | 8 kts | 286° |
| 2026-05-07 11:34 | 45.22046 | 14.56761 | 259 ft | 6 kts | 278° |
| 2026-05-07 11:34 | 45.22039 | 14.56719 | 259 ft | 3 kts | 209° |
| 2026-05-07 11:34 | 45.22016 | 14.56726 | 259 ft | 4 kts | 154° |
| 2026-05-07 11:34 | 45.21988 | 14.56752 | 259 ft | 10 kts | 146° |
| 2026-05-07 11:35 | 45.21849 | 14.56893 | 256 ft | 41 kts | 144° |
| 2026-05-07 11:35 | 45.21548 | 14.57207 | 319 ft | 57 kts | 143° |
| 2026-05-07 11:35 | 45.21219 | 14.57628 | 398 ft | 68 kts | 130° |
| 2026-05-07 11:35 | 45.20872 | 14.58182 | 420 ft | 87 kts | 135° |
| 2026-05-07 11:36 | 45.20456 | 14.58524 | 848 ft | 30 kts | 195° |
| 2026-05-07 11:36 | 45.20333 | 14.57943 | 654 ft | 90 kts | 266° |
| 2026-05-07 11:36 | 45.20155 | 14.57183 | 860 ft | 79 kts | 241° |
| 2026-05-07 11:36 | 45.20071 | 14.56423 | 923 ft | 84 kts | 252° |
| 2026-05-07 11:37 | 45.19641 | 14.55607 | 666 ft | 116 kts | 221° |
| 2026-05-07 11:37 | 45.18924 | 14.55744 | 621 ft | 118 kts | 133° |
| 2026-05-07 11:37 | 45.18573 | 14.56801 | 614 ft | 115 kts | 105° |
| 2026-05-07 11:37 | 45.18354 | 14.57754 | 916 ft | 91 kts | 105° |
| 2026-05-07 11:38 | 45.18271 | 14.58605 | 1040 ft | 89 kts | 93° |
| 2026-05-07 11:38 | 45.18257 | 14.59478 | 1199 ft | 86 kts | 91° |
| 2026-05-07 11:38 | 45.18144 | 14.60252 | 1390 ft | 77 kts | 119° |
| 2026-05-07 11:38 | 45.17838 | 14.60928 | 1571 ft | 77 kts | 121° |
| 2026-05-07 11:39 | 45.17545 | 14.61579 | 1711 ft | 87 kts | 132° |
| 2026-05-07 11:39 | 45.17147 | 14.62206 | 1965 ft | 79 kts | 133° |
| 2026-05-07 11:39 | 45.16687 | 14.62682 | 2133 ft | 79 kts | 153° |
| 2026-05-07 11:39 | 45.16247 | 14.63132 | 2315 ft | 78 kts | 144° |
| 2026-05-07 11:40 | 45.15824 | 14.63540 | 2521 ft | 73 kts | 154° |
| 2026-05-07 11:40 | 45.15387 | 14.63955 | 2712 ft | 76 kts | 149° |
| 2026-05-07 11:40 | 45.14974 | 14.64379 | 2924 ft | 73 kts | 154° |
| 2026-05-07 11:40 | 45.14558 | 14.64740 | 3163 ft | 67 kts | 159° |
| 2026-05-07 11:41 | 45.14157 | 14.65103 | 3306 ft | 69 kts | 140° |
| 2026-05-07 11:41 | 45.13809 | 14.65536 | 3445 ft | 65 kts | 158° |
| 2026-05-07 11:41 | 45.13372 | 14.65691 | 3623 ft | 56 kts | 175° |
| 2026-05-07 11:41 | 45.13009 | 14.65445 | 3757 ft | 55 kts | 229° |
| 2026-05-07 11:42 | 45.12974 | 14.64802 | 3795 ft | 79 kts | 276° |
| 2026-05-07 11:42 | 45.13157 | 14.63950 | 3823 ft | 99 kts | 292° |
| 2026-05-07 11:42 | 45.13560 | 14.63163 | 4031 ft | 96 kts | 307° |
| 2026-05-07 11:42 | 45.13996 | 14.62511 | 4291 ft | 90 kts | 307° |
| 2026-05-07 11:43 | 45.14517 | 14.61981 | 4357 ft | 101 kts | 319° |
| 2026-05-07 11:43 | 45.15034 | 14.61280 | 4499 ft | 92 kts | 289° |
| 2026-05-07 11:43 | 45.15179 | 14.60339 | 4408 ft | 108 kts | 281° |
| 2026-05-07 11:43 | 45.15341 | 14.59350 | 4570 ft | 92 kts | 272° |
| 2026-05-07 11:44 | 45.15455 | 14.58576 | 4882 ft | 69 kts | 277° |
| 2026-05-07 11:44 | 45.15608 | 14.57674 | 4455 ft | 111 kts | 280° |
| 2026-05-07 11:44 | 45.15868 | 14.56730 | 4713 ft | 98 kts | 292° |
| 2026-05-07 11:44 | 45.16179 | 14.55936 | 4868 ft | 93 kts | 292° |
| 2026-05-07 11:45 | 45.16476 | 14.55096 | 4943 ft | 96 kts | 279° |
| 2026-05-07 11:45 | 45.16488 | 14.54165 | 5004 ft | 97 kts | 278° |
| 2026-05-07 11:45 | 45.16676 | 14.53272 | 5086 ft | 95 kts | 279° |
| 2026-05-07 11:45 | 45.16872 | 14.52367 | 5164 ft | 95 kts | 281° |
| 2026-05-07 11:46 | 45.17075 | 14.51481 | 5218 ft | 96 kts | 282° |
| 2026-05-07 11:46 | 45.17292 | 14.50563 | 5264 ft | 99 kts | 283° |
| 2026-05-07 11:46 | 45.17512 | 14.49643 | 5306 ft | 101 kts | 283° |
| 2026-05-07 11:46 | 45.17746 | 14.48677 | 5309 ft | 105 kts | 284° |
| 2026-05-07 11:47 | 45.17986 | 14.47693 | 5309 ft | 106 kts | 284° |
| 2026-05-07 11:47 | 45.18232 | 14.46678 | 5310 ft | 111 kts | 284° |
| 2026-05-07 11:47 | 45.18488 | 14.45632 | 5309 ft | 115 kts | 284° |
| 2026-05-07 11:47 | 45.18752 | 14.44550 | 5305 ft | 117 kts | 284° |
| 2026-05-07 11:48 | 45.19017 | 14.43467 | 5305 ft | 114 kts | 284° |
| 2026-05-07 11:48 | 45.19274 | 14.42413 | 5323 ft | 112 kts | 284° |
| 2026-05-07 11:48 | 45.19517 | 14.41419 | 5458 ft | 103 kts | 284° |
| 2026-05-07 11:48 | 45.19744 | 14.40485 | 5626 ft | 97 kts | 283° |
| 2026-05-07 11:49 | 45.19958 | 14.39606 | 5793 ft | 93 kts | 283° |
| 2026-05-07 11:49 | 45.20164 | 14.38756 | 5958 ft | 89 kts | 283° |
| 2026-05-07 11:49 | 45.20355 | 14.37973 | 6123 ft | 80 kts | 282° |
| 2026-05-07 11:49 | 45.20529 | 14.37255 | 6288 ft | 74 kts | 281° |
| 2026-05-07 11:50 | 45.20689 | 14.36597 | 6440 ft | 67 kts | 281° |
| 2026-05-07 11:50 | 45.20832 | 14.36006 | 6577 ft | 60 kts | 279° |
| 2026-05-07 11:50 | 45.20972 | 14.35420 | 6622 ft | 66 kts | 280° |
| 2026-05-07 11:50 | 45.21128 | 14.34772 | 6680 ft | 71 kts | 281° |
| 2026-05-07 11:51 | 45.21293 | 14.34091 | 6746 ft | 76 kts | 281° |
| 2026-05-07 11:51 | 45.21472 | 14.33356 | 6812 ft | 82 kts | 282° |
| 2026-05-07 11:51 | 45.21663 | 14.32567 | 6880 ft | 88 kts | 282° |
| 2026-05-07 11:51 | 45.21772 | 14.31723 | 6936 ft | 86 kts | 262° |
| 2026-05-07 11:52 | 45.21738 | 14.30875 | 6991 ft | 88 kts | 263° |
| 2026-05-07 11:52 | 45.21712 | 14.29998 | 7039 ft | 91 kts | 263° |
| 2026-05-07 11:52 | 45.21684 | 14.29075 | 7049 ft | 96 kts | 264° |
| 2026-05-07 11:52 | 45.21655 | 14.28109 | 7051 ft | 99 kts | 264° |
| 2026-05-07 11:53 | 45.21624 | 14.27112 | 7051 ft | 101 kts | 264° |
| 2026-05-07 11:53 | 45.21594 | 14.26116 | 7050 ft | 103 kts | 264° |
| 2026-05-07 11:53 | 45.21563 | 14.25106 | 7047 ft | 104 kts | 264° |
| 2026-05-07 11:53 | 45.21532 | 14.24076 | 7048 ft | 104 kts | 264° |
| 2026-05-07 11:54 | 45.21500 | 14.23040 | 7046 ft | 105 kts | 263° |
| 2026-05-07 11:54 | 45.21467 | 14.22000 | 7046 ft | 107 kts | 263° |
| 2026-05-07 11:54 | 45.21437 | 14.20967 | 7045 ft | 103 kts | 264° |
| 2026-05-07 11:54 | 45.21404 | 14.19930 | 7058 ft | 104 kts | 264° |
| 2026-05-07 11:55 | 45.21375 | 14.18947 | 7173 ft | 99 kts | 264° |
| 2026-05-07 11:55 | 45.21342 | 14.17980 | 7285 ft | 95 kts | 264° |
| 2026-05-07 11:55 | 45.21313 | 14.17067 | 7398 ft | 91 kts | 263° |
| 2026-05-07 11:55 | 45.21285 | 14.16185 | 7513 ft | 87 kts | 263° |
| 2026-05-07 11:56 | 45.21258 | 14.15340 | 7627 ft | 85 kts | 263° |
| 2026-05-07 11:56 | 45.21232 | 14.14512 | 7744 ft | 83 kts | 263° |
| 2026-05-07 11:56 | 45.21206 | 14.13703 | 7854 ft | 80 kts | 263° |
| 2026-05-07 11:56 | 45.21181 | 14.12921 | 7971 ft | 78 kts | 262° |
| 2026-05-07 11:57 | 45.21156 | 14.12164 | 8088 ft | 76 kts | 262° |
| 2026-05-07 11:57 | 45.21133 | 14.11426 | 8203 ft | 72 kts | 262° |
| 2026-05-07 11:57 | 45.21111 | 14.10738 | 8313 ft | 68 kts | 261° |
| 2026-05-07 11:57 | 45.21091 | 14.10092 | 8421 ft | 63 kts | 260° |
| 2026-05-07 11:58 | 45.21069 | 14.09482 | 8530 ft | 60 kts | 260° |
| 2026-05-07 11:58 | 45.21051 | 14.08906 | 8633 ft | 57 kts | 259° |
| 2026-05-07 11:58 | 45.21031 | 14.08349 | 8705 ft | 60 kts | 259° |
| 2026-05-07 11:58 | 45.21011 | 14.07734 | 8767 ft | 64 kts | 260° |
| 2026-05-07 11:59 | 45.20990 | 14.07086 | 8834 ft | 67 kts | 261° |
| 2026-05-07 11:59 | 45.20968 | 14.06413 | 8906 ft | 70 kts | 261° |
| 2026-05-07 11:59 | 45.20942 | 14.05656 | 8852 ft | 85 kts | 262° |
| 2026-05-07 11:59 | 45.20913 | 14.04746 | 8765 ft | 98 kts | 263° |
| 2026-05-07 12:00 | 45.20882 | 14.03752 | 8668 ft | 105 kts | 263° |
| 2026-05-07 12:00 | 45.20944 | 14.02688 | 8543 ft | 117 kts | 289° |
| 2026-05-07 12:00 | 45.21573 | 14.01856 | 8418 ft | 128 kts | 315° |
| 2026-05-07 12:00 | 45.22275 | 14.01082 | 8303 ft | 129 kts | 314° |
| 2026-05-07 12:01 | 45.22984 | 14.00291 | 8185 ft | 130 kts | 314° |
| 2026-05-07 12:01 | 45.23691 | 13.99487 | 8086 ft | 130 kts | 314° |
| 2026-05-07 12:01 | 45.24442 | 13.98761 | 8019 ft | 132 kts | 325° |
| 2026-05-07 12:01 | 45.25242 | 13.98155 | 8014 ft | 128 kts | 325° |
| 2026-05-07 12:02 | 45.26036 | 13.97550 | 7954 ft | 131 kts | 325° |
| 2026-05-07 12:02 | 45.26840 | 13.96931 | 7851 ft | 134 kts | 325° |
| 2026-05-07 12:02 | 45.27673 | 13.96283 | 7753 ft | 137 kts | 326° |
| 2026-05-07 12:02 | 45.28507 | 13.95633 | 7657 ft | 138 kts | 325° |
| 2026-05-07 12:03 | 45.29354 | 13.94978 | 7544 ft | 138 kts | 325° |
| 2026-05-07 12:03 | 45.30196 | 13.94315 | 7461 ft | 139 kts | 325° |
| 2026-05-07 12:03 | 45.31055 | 13.93642 | 7365 ft | 142 kts | 325° |
| 2026-05-07 12:03 | 45.31918 | 13.92975 | 7270 ft | 143 kts | 325° |
| 2026-05-07 12:04 | 45.32789 | 13.92301 | 7170 ft | 142 kts | 326° |
| 2026-05-07 12:04 | 45.33650 | 13.91621 | 7072 ft | 142 kts | 325° |
| 2026-05-07 12:04 | 45.34519 | 13.90948 | 6974 ft | 142 kts | 326° |
| 2026-05-07 12:04 | 45.35373 | 13.90252 | 6877 ft | 143 kts | 325° |
| 2026-05-07 12:05 | 45.36240 | 13.89554 | 6776 ft | 144 kts | 326° |
| 2026-05-07 12:05 | 45.36828 | 13.89088 | 6713 ft | 143 kts | 325° |
| 2026-05-07 12:05 | 45.37696 | 13.88417 | 6617 ft | 143 kts | 326° |
| 2026-05-07 12:05 | 45.38856 | 13.87502 | 6508 ft | 143 kts | 326° |
| 2026-05-07 12:06 | 45.39433 | 13.87051 | 6504 ft | 140 kts | 325° |
| 2026-05-07 12:06 | 45.40283 | 13.86394 | 6501 ft | 139 kts | 326° |
| 2026-05-07 12:06 | 45.41123 | 13.85737 | 6497 ft | 136 kts | 323° |
| 2026-05-07 12:06 | 45.41946 | 13.85095 | 6492 ft | 133 kts | 327° |
| 2026-05-07 12:07 | 45.42743 | 13.84474 | 6492 ft | 132 kts | 326° |
| 2026-05-07 12:07 | 45.43555 | 13.83890 | 6521 ft | 131 kts | 332° |
| 2026-05-07 12:07 | 45.44457 | 13.83508 | 6489 ft | 141 kts | 342° |
| 2026-05-07 12:07 | 45.45426 | 13.83230 | 6449 ft | 141 kts | 345° |
| 2026-05-07 12:08 | 45.46381 | 13.82963 | 6463 ft | 142 kts | 347° |
| 2026-05-07 12:08 | 45.47374 | 13.82842 | 6371 ft | 147 kts | 352° |
| 2026-05-07 12:08 | 45.48369 | 13.82727 | 6421 ft | 139 kts | 346° |
| 2026-05-07 12:08 | 45.49288 | 13.82339 | 6454 ft | 136 kts | 328° |
| 2026-05-07 12:09 | 45.50116 | 13.81704 | 6425 ft | 136 kts | 326° |
| 2026-05-07 12:09 | 45.50953 | 13.81066 | 6368 ft | 137 kts | 325° |
| 2026-05-07 12:09 | 45.51832 | 13.80480 | 6252 ft | 140 kts | 332° |
| 2026-05-07 12:09 | 45.52733 | 13.79974 | 6186 ft | 137 kts | 334° |
| 2026-05-07 12:10 | 45.53631 | 13.79540 | 6057 ft | 139 kts | 334° |
| 2026-05-07 12:10 | 45.54554 | 13.79037 | 5838 ft | 141 kts | 330° |
| 2026-05-07 12:10 | 45.55399 | 13.78391 | 5742 ft | 134 kts | 321° |
| 2026-05-07 12:10 | 45.56064 | 13.77533 | 5655 ft | 127 kts | 300° |
| 2026-05-07 12:11 | 45.56428 | 13.76375 | 5392 ft | 131 kts | 282° |
| 2026-05-07 12:11 | 45.56577 | 13.75109 | 5252 ft | 129 kts | 268° |
| 2026-05-07 12:11 | 45.56567 | 13.74791 | 5238 ft | 127 kts | 261° |
| 2026-05-07 12:11 | 45.56403 | 13.73982 | 5231 ft | 119 kts | 240° |
| 2026-05-07 12:12 | 45.55840 | 13.73153 | 5084 ft | 122 kts | 208° |
| 2026-05-07 12:12 | 45.54995 | 13.72927 | 4950 ft | 125 kts | 176° |
| 2026-05-07 12:12 | 45.54201 | 13.73399 | 4880 ft | 125 kts | 144° |
| 2026-05-07 12:12 | 45.53720 | 13.74397 | 4853 ft | 125 kts | 111° |
| 2026-05-07 12:13 | 45.53699 | 13.75663 | 4771 ft | 132 kts | 80° |
| 2026-05-07 12:13 | 45.54158 | 13.76837 | 4715 ft | 140 kts | 50° |
| 2026-05-07 12:13 | 45.54899 | 13.77756 | 4639 ft | 142 kts | 34° |
| 2026-05-07 12:13 | 45.55772 | 13.78463 | 4499 ft | 146 kts | 21° |
| 2026-05-07 12:14 | 45.56722 | 13.78993 | 4394 ft | 145 kts | 17° |
| 2026-05-07 12:14 | 45.57678 | 13.79418 | 4321 ft | 142 kts | 13° |
| 2026-05-07 12:14 | 45.58614 | 13.79797 | 4281 ft | 139 kts | 13° |
| 2026-05-07 12:14 | 45.59540 | 13.80174 | 4280 ft | 136 kts | 14° |
| 2026-05-07 12:15 | 45.60453 | 13.80539 | 4278 ft | 135 kts | 11° |
| 2026-05-07 12:15 | 45.61357 | 13.80825 | 4280 ft | 134 kts | 9° |
| 2026-05-07 12:15 | 45.62267 | 13.81082 | 4280 ft | 132 kts | 9° |
| 2026-05-07 12:15 | 45.63171 | 13.81316 | 4277 ft | 133 kts | 2° |
| 2026-05-07 12:16 | 45.64097 | 13.81333 | 4276 ft | 132 kts | 354° |
| 2026-05-07 12:16 | 45.65023 | 13.81354 | 4276 ft | 132 kts | 356° |
| 2026-05-07 12:16 | 45.65946 | 13.81351 | 4280 ft | 133 kts | 356° |
| 2026-05-07 12:16 | 45.66832 | 13.81120 | 4265 ft | 131 kts | 332° |
| 2026-05-07 12:17 | 45.67625 | 13.80520 | 4260 ft | 126 kts | 324° |
| 2026-05-07 12:17 | 45.68324 | 13.79788 | 4257 ft | 123 kts | 320° |
| 2026-05-07 12:17 | 45.69010 | 13.79075 | 4254 ft | 122 kts | 320° |
| 2026-05-07 12:17 | 45.69684 | 13.78350 | 4252 ft | 120 kts | 315° |
| 2026-05-07 12:18 | 45.70297 | 13.77552 | 4252 ft | 120 kts | 313° |
| 2026-05-07 12:18 | 45.70927 | 13.76762 | 4251 ft | 120 kts | 315° |
| 2026-05-07 12:18 | 45.71548 | 13.75973 | 4251 ft | 121 kts | 314° |
| 2026-05-07 12:18 | 45.72151 | 13.75140 | 4295 ft | 118 kts | 304° |
| 2026-05-07 12:19 | 45.72577 | 13.74124 | 4263 ft | 121 kts | 291° |
| 2026-05-07 12:19 | 45.72889 | 13.73038 | 4295 ft | 118 kts | 287° |
| 2026-05-07 12:19 | 45.73152 | 13.71924 | 4279 ft | 119 kts | 284° |
| 2026-05-07 12:19 | 45.73395 | 13.70785 | 4270 ft | 117 kts | 282° |
| 2026-05-07 12:20 | 45.73578 | 13.69675 | 4349 ft | 113 kts | 276° |
| 2026-05-07 12:20 | 45.73657 | 13.68568 | 4328 ft | 114 kts | 268° |
| 2026-05-07 12:20 | 45.73754 | 13.67384 | 4241 ft | 123 kts | 277° |
| 2026-05-07 12:20 | 45.74021 | 13.66226 | 4191 ft | 124 kts | 287° |
| 2026-05-07 12:21 | 45.74344 | 13.65095 | 4177 ft | 120 kts | 289° |
| 2026-05-07 12:21 | 45.74675 | 13.63981 | 4114 ft | 121 kts | 289° |
| 2026-05-07 12:21 | 45.74959 | 13.62881 | 4114 ft | 118 kts | 284° |
| 2026-05-07 12:21 | 45.75174 | 13.61745 | 4101 ft | 117 kts | 278° |
| 2026-05-07 12:22 | 45.75348 | 13.60585 | 3981 ft | 124 kts | 277° |
| 2026-05-07 12:22 | 45.75482 | 13.59305 | 3723 ft | 132 kts | 273° |
| 2026-05-07 12:22 | 45.75526 | 13.57996 | 3572 ft | 129 kts | 267° |
| 2026-05-07 12:22 | 45.75471 | 13.56739 | 3447 ft | 126 kts | 261° |
| 2026-05-07 12:23 | 45.75313 | 13.55488 | 3204 ft | 129 kts | 255° |
| 2026-05-07 12:23 | 45.75087 | 13.54249 | 3010 ft | 129 kts | 251° |
| 2026-05-07 12:23 | 45.74769 | 13.53025 | 2722 ft | 133 kts | 246° |
| 2026-05-07 12:23 | 45.74443 | 13.51805 | 2391 ft | 124 kts | 249° |
| 2026-05-07 12:24 | 45.74165 | 13.50668 | 2051 ft | 121 kts | 249° |
| 2026-05-07 12:24 | 45.73910 | 13.49509 | 1780 ft | 120 kts | 254° |
| 2026-05-07 12:24 | 45.73749 | 13.48351 | 1548 ft | 119 kts | 257° |
| 2026-05-07 12:24 | 45.73655 | 13.47191 | 1427 ft | 117 kts | 263° |
| 2026-05-07 12:25 | 45.73618 | 13.46020 | 1352 ft | 116 kts | 265° |
| 2026-05-07 12:25 | 45.73598 | 13.44851 | 1233 ft | 116 kts | 267° |
| 2026-05-07 12:25 | 45.73632 | 13.43716 | 1184 ft | 115 kts | 271° |
| 2026-05-07 12:25 | 45.73697 | 13.42563 | 1135 ft | 118 kts | 269° |
| 2026-05-07 12:26 | 45.73770 | 13.41382 | 1105 ft | 119 kts | 272° |
| 2026-05-07 12:26 | 45.73836 | 13.40237 | 1127 ft | 112 kts | 269° |
| 2026-05-07 12:26 | 45.73898 | 13.39111 | 1083 ft | 116 kts | 271° |
| 2026-05-07 12:26 | 45.73940 | 13.37938 | 1057 ft | 119 kts | 268° |
| 2026-05-07 12:27 | 45.73971 | 13.36753 | 1015 ft | 120 kts | 269° |
| 2026-05-07 12:27 | 45.74080 | 13.35567 | 993 ft | 124 kts | 278° |
| 2026-05-07 12:27 | 45.74243 | 13.34365 | 1023 ft | 120 kts | 275° |
| 2026-05-07 12:27 | 45.74358 | 13.33193 | 1120 ft | 116 kts | 274° |
| 2026-05-07 12:28 | 45.74473 | 13.32056 | 1220 ft | 116 kts | 272° |
| 2026-05-07 12:28 | 45.74581 | 13.30833 | 1212 ft | 126 kts | 269° |
| 2026-05-07 12:28 | 45.74626 | 13.29569 | 1323 ft | 128 kts | 271° |
| 2026-05-07 12:28 | 45.74819 | 13.28326 | 1364 ft | 129 kts | 283° |
| 2026-05-07 12:29 | 45.75075 | 13.27039 | 1234 ft | 135 kts | 284° |
| 2026-05-07 12:29 | 45.75350 | 13.25786 | 1167 ft | 132 kts | 282° |
| 2026-05-07 12:29 | 45.75581 | 13.24552 | 1127 ft | 124 kts | 278° |
| 2026-05-07 12:29 | 45.75774 | 13.23376 | 1061 ft | 115 kts | 277° |
| 2026-05-07 12:30 | 45.75824 | 13.22275 | 1003 ft | 108 kts | 266° |
| 2026-05-07 12:30 | 45.75802 | 13.21236 | 1052 ft | 105 kts | 264° |
| 2026-05-07 12:30 | 45.75733 | 13.20192 | 972 ft | 109 kts | 262° |
| 2026-05-07 12:30 | 45.75637 | 13.19107 | 844 ft | 111 kts | 258° |
| 2026-05-07 12:31 | 45.75519 | 13.18052 | 891 ft | 105 kts | 258° |
| 2026-05-07 12:31 | 45.75392 | 13.17057 | 994 ft | 100 kts | 255° |
| 2026-05-07 12:31 | 45.75175 | 13.16103 | 1015 ft | 102 kts | 244° |
| 2026-05-07 12:31 | 45.74813 | 13.15237 | 1094 ft | 101 kts | 232° |
| 2026-05-07 12:32 | 45.74373 | 13.14483 | 1175 ft | 98 kts | 227° |
| 2026-05-07 12:32 | 45.73915 | 13.13751 | 1188 ft | 98 kts | 227° |
| 2026-05-07 12:32 | 45.73443 | 13.13042 | 1201 ft | 100 kts | 225° |
| 2026-05-07 12:32 | 45.72943 | 13.12329 | 1180 ft | 102 kts | 223° |
| 2026-05-07 12:33 | 45.71941 | 13.10977 | 1190 ft | 103 kts | 220° |
| 2026-05-07 12:33 | 45.71412 | 13.10289 | 1292 ft | 97 kts | 221° |
| 2026-05-07 12:33 | 45.70884 | 13.09634 | 1244 ft | 106 kts | 218° |
| 2026-05-07 12:34 | 45.70325 | 13.08960 | 1316 ft | 101 kts | 221° |
| 2026-05-07 12:34 | 45.69823 | 13.08296 | 1400 ft | 97 kts | 223° |
| 2026-05-07 12:34 | 45.69350 | 13.07624 | 1480 ft | 95 kts | 226° |
| 2026-05-07 12:34 | 45.68947 | 13.06888 | 1552 ft | 93 kts | 234° |
| 2026-05-07 12:35 | 45.68610 | 13.06111 | 1655 ft | 91 kts | 237° |
| 2026-05-07 12:35 | 45.68261 | 13.05284 | 1665 ft | 101 kts | 237° |
| 2026-05-07 12:35 | 45.67906 | 13.04441 | 1736 ft | 98 kts | 236° |
| 2026-05-07 12:35 | 45.67504 | 13.03670 | 1821 ft | 95 kts | 232° |
| 2026-05-07 12:36 | 45.67122 | 13.02921 | 1909 ft | 92 kts | 232° |
| 2026-05-07 12:36 | 45.66749 | 13.02185 | 2003 ft | 90 kts | 232° |
| 2026-05-07 12:36 | 45.66387 | 13.01465 | 2100 ft | 89 kts | 233° |
| 2026-05-07 12:36 | 45.66061 | 13.00726 | 2199 ft | 85 kts | 237° |
| 2026-05-07 12:37 | 45.65713 | 12.99991 | 2207 ft | 94 kts | 237° |
| 2026-05-07 12:37 | 45.65341 | 12.99182 | 2204 ft | 100 kts | 237° |
| 2026-05-07 12:37 | 45.64954 | 12.98342 | 2208 ft | 102 kts | 237° |
| 2026-05-07 12:37 | 45.64556 | 12.97471 | 2208 ft | 106 kts | 237° |
| 2026-05-07 12:38 | 45.64150 | 12.96599 | 2205 ft | 106 kts | 237° |
| 2026-05-07 12:38 | 45.63735 | 12.95705 | 2205 ft | 109 kts | 237° |
| 2026-05-07 12:38 | 45.63316 | 12.94804 | 2204 ft | 109 kts | 237° |
| 2026-05-07 12:38 | 45.62894 | 12.93906 | 2205 ft | 108 kts | 237° |
| 2026-05-07 12:39 | 45.62483 | 12.93001 | 2200 ft | 109 kts | 237° |
| 2026-05-07 12:39 | 45.62060 | 12.92090 | 2206 ft | 111 kts | 237° |
| 2026-05-07 12:39 | 45.61636 | 12.91164 | 2197 ft | 110 kts | 237° |
| 2026-05-07 12:39 | 45.61225 | 12.90261 | 2195 ft | 110 kts | 237° |
| 2026-05-07 12:40 | 45.60812 | 12.89329 | 2189 ft | 112 kts | 237° |
| 2026-05-07 12:40 | 45.60390 | 12.88405 | 2191 ft | 110 kts | 237° |
| 2026-05-07 12:40 | 45.59983 | 12.87490 | 2191 ft | 108 kts | 237° |
| 2026-05-07 12:40 | 45.59586 | 12.86597 | 2188 ft | 105 kts | 237° |
| 2026-05-07 12:41 | 45.59203 | 12.85733 | 2188 ft | 103 kts | 237° |
| 2026-05-07 12:41 | 45.58824 | 12.84859 | 2193 ft | 104 kts | 237° |
| 2026-05-07 12:41 | 45.58439 | 12.83990 | 2186 ft | 104 kts | 237° |
| 2026-05-07 12:41 | 45.58045 | 12.83113 | 2188 ft | 105 kts | 237° |
| 2026-05-07 12:42 | 45.57656 | 12.82222 | 2184 ft | 106 kts | 237° |
| 2026-05-07 12:42 | 45.57265 | 12.81345 | 2184 ft | 105 kts | 237° |
| 2026-05-07 12:42 | 45.56873 | 12.80475 | 2179 ft | 101 kts | 236° |
| 2026-05-07 12:42 | 45.56495 | 12.79633 | 2187 ft | 100 kts | 237° |
| 2026-05-07 12:43 | 45.56124 | 12.78778 | 2191 ft | 103 kts | 238° |
| 2026-05-07 12:43 | 45.55731 | 12.77930 | 2183 ft | 101 kts | 237° |
| 2026-05-07 12:43 | 45.55360 | 12.77081 | 2199 ft | 102 kts | 242° |
| 2026-05-07 12:43 | 45.55102 | 12.76144 | 2244 ft | 103 kts | 252° |
| 2026-05-07 12:44 | 45.54938 | 12.75129 | 2254 ft | 106 kts | 257° |
| 2026-05-07 12:44 | 45.54816 | 12.74064 | 2249 ft | 110 kts | 259° |
| 2026-05-07 12:44 | 45.54685 | 12.73018 | 2268 ft | 106 kts | 258° |
| 2026-05-07 12:44 | 45.54568 | 12.71978 | 2279 ft | 108 kts | 259° |
| 2026-05-07 12:45 | 45.54469 | 12.70905 | 2273 ft | 108 kts | 260° |
| 2026-05-07 12:45 | 45.54350 | 12.69845 | 2262 ft | 109 kts | 259° |
| 2026-05-07 12:45 | 45.54241 | 12.68777 | 2267 ft | 109 kts | 258° |
| 2026-05-07 12:45 | 45.54095 | 12.67699 | 2192 ft | 113 kts | 257° |
| 2026-05-07 12:46 | 45.53954 | 12.66603 | 2239 ft | 111 kts | 258° |
| 2026-05-07 12:46 | 45.53830 | 12.65503 | 2218 ft | 112 kts | 260° |
| 2026-05-07 12:46 | 45.53721 | 12.64403 | 2194 ft | 113 kts | 261° |
| 2026-05-07 12:46 | 45.53617 | 12.63285 | 2154 ft | 115 kts | 261° |
| 2026-05-07 12:47 | 45.53506 | 12.62184 | 2146 ft | 111 kts | 258° |
| 2026-05-07 12:47 | 45.53387 | 12.61104 | 2134 ft | 109 kts | 259° |
| 2026-05-07 12:47 | 45.53286 | 12.60009 | 2074 ft | 114 kts | 261° |
| 2026-05-07 12:47 | 45.53191 | 12.58893 | 2024 ft | 112 kts | 261° |
| 2026-05-07 12:48 | 45.53063 | 12.57840 | 2032 ft | 107 kts | 256° |
| 2026-05-07 12:48 | 45.52889 | 12.56787 | 2003 ft | 108 kts | 252° |
| 2026-05-07 12:48 | 45.52641 | 12.55794 | 2028 ft | 105 kts | 246° |
| 2026-05-07 12:48 | 45.52351 | 12.54838 | 2024 ft | 106 kts | 245° |
| 2026-05-07 12:49 | 45.52048 | 12.53890 | 2008 ft | 106 kts | 244° |
| 2026-05-07 12:49 | 45.51736 | 12.52938 | 2023 ft | 104 kts | 244° |
| 2026-05-07 12:49 | 45.51447 | 12.52017 | 2085 ft | 100 kts | 246° |
| 2026-05-07 12:49 | 45.51171 | 12.51099 | 2069 ft | 103 kts | 245° |
| 2026-05-07 12:50 | 45.50885 | 12.50159 | 2105 ft | 102 kts | 245° |
| 2026-05-07 12:50 | 45.50601 | 12.49224 | 2114 ft | 104 kts | 246° |
| 2026-05-07 12:50 | 45.50326 | 12.48261 | 2160 ft | 104 kts | 247° |
| 2026-05-07 12:50 | 45.50057 | 12.47303 | 2183 ft | 105 kts | 247° |
| 2026-05-07 12:51 | 45.49770 | 12.46357 | 2222 ft | 105 kts | 245° |
| 2026-05-07 12:51 | 45.49478 | 12.45377 | 2189 ft | 109 kts | 246° |
| 2026-05-07 12:51 | 45.49280 | 12.44719 | 2197 ft | 107 kts | 246° |
| 2026-05-07 12:51 | 45.48848 | 12.43467 | 2226 ft | 104 kts | 241° |
| 2026-05-07 12:52 | 45.48655 | 12.42838 | 2226 ft | 104 kts | 251° |
| 2026-05-07 12:52 | 45.48484 | 12.41941 | 2243 ft | 85 kts | 255° |
| 2026-05-07 12:52 | 45.48363 | 12.41118 | 2241 ft | 86 kts | 256° |
| 2026-05-07 12:52 | 45.48235 | 12.40263 | 2184 ft | 91 kts | 256° |
| 2026-05-07 12:53 | 45.48100 | 12.39391 | 2191 ft | 90 kts | 255° |
| 2026-05-07 12:53 | 45.47935 | 12.38544 | 2212 ft | 90 kts | 252° |
| 2026-05-07 12:53 | 45.47743 | 12.37705 | 2233 ft | 86 kts | 250° |
| 2026-05-07 12:53 | 45.47553 | 12.36906 | 2220 ft | 87 kts | 249° |
| 2026-05-07 12:54 | 45.47352 | 12.36095 | 2205 ft | 85 kts | 248° |
| 2026-05-07 12:54 | 45.47155 | 12.35290 | 2159 ft | 86 kts | 250° |
| 2026-05-07 12:54 | 45.46981 | 12.34508 | 2171 ft | 80 kts | 251° |
| 2026-05-07 12:54 | 45.46826 | 12.33807 | 2154 ft | 72 kts | 248° |
| 2026-05-07 12:55 | 45.46612 | 12.33117 | 2163 ft | 79 kts | 242° |
| 2026-05-07 12:55 | 45.46328 | 12.32449 | 2158 ft | 79 kts | 236° |
| 2026-05-07 12:55 | 45.45980 | 12.31821 | 2118 ft | 82 kts | 231° |
| 2026-05-07 12:55 | 45.45604 | 12.31229 | 2146 ft | 78 kts | 227° |
| 2026-05-07 12:56 | 45.45202 | 12.30697 | 2094 ft | 82 kts | 223° |
| 2026-05-07 12:56 | 45.44758 | 12.30208 | 2140 ft | 78 kts | 217° |
| 2026-05-07 12:56 | 45.44274 | 12.29883 | 2143 ft | 79 kts | 202° |
| 2026-05-07 12:56 | 45.43709 | 12.29783 | 2089 ft | 85 kts | 185° |
| 2026-05-07 12:57 | 45.43123 | 12.29949 | 2074 ft | 86 kts | 168° |
| 2026-05-07 12:57 | 45.42590 | 12.30349 | 2058 ft | 88 kts | 153° |
| 2026-05-07 12:57 | 45.42119 | 12.30931 | 2009 ft | 92 kts | 139° |
| 2026-05-07 12:57 | 45.41768 | 12.31709 | 1984 ft | 95 kts | 120° |
| 2026-05-07 12:58 | 45.41595 | 12.32624 | 1942 ft | 98 kts | 102° |
| 2026-05-07 12:58 | 45.41623 | 12.33601 | 1955 ft | 97 kts | 82° |
| 2026-05-07 12:58 | 45.41853 | 12.34511 | 1919 ft | 100 kts | 64° |
| 2026-05-07 12:58 | 45.42240 | 12.35331 | 1848 ft | 102 kts | 51° |
| 2026-05-07 12:59 | 45.42757 | 12.35983 | 1848 ft | 97 kts | 31° |
| 2026-05-07 12:59 | 45.43380 | 12.36359 | 1782 ft | 99 kts | 9° |
| 2026-05-07 12:59 | 45.44057 | 12.36371 | 1768 ft | 93 kts | 346° |
| 2026-05-07 12:59 | 45.44646 | 12.36061 | 1730 ft | 91 kts | 326° |
| 2026-05-07 13:00 | 45.45128 | 12.35484 | 1669 ft | 89 kts | 303° |
| 2026-05-07 13:00 | 45.45434 | 12.34747 | 1624 ft | 88 kts | 288° |
| 2026-05-07 13:00 | 45.45596 | 12.33949 | 1632 ft | 82 kts | 275° |
| 2026-05-07 13:00 | 45.45663 | 12.33128 | 1589 ft | 83 kts | 268° |
| 2026-05-07 13:01 | 45.45589 | 12.32328 | 1524 ft | 83 kts | 253° |
| 2026-05-07 13:01 | 45.45351 | 12.31582 | 1485 ft | 84 kts | 237° |
| 2026-05-07 13:01 | 45.44953 | 12.30997 | 1463 ft | 80 kts | 218° |
| 2026-05-07 13:01 | 45.44442 | 12.30593 | 1371 ft | 87 kts | 207° |
| 2026-05-07 13:02 | 45.43864 | 12.30344 | 1388 ft | 87 kts | 193° |
| 2026-05-07 13:02 | 45.43258 | 12.30413 | 1360 ft | 89 kts | 169° |
| 2026-05-07 13:02 | 45.42720 | 12.30839 | 1330 ft | 88 kts | 147° |
| 2026-05-07 13:02 | 45.42337 | 12.31571 | 1244 ft | 99 kts | 122° |
| 2026-05-07 13:03 | 45.42211 | 12.32510 | 1312 ft | 94 kts | 92° |
| 2026-05-07 13:03 | 45.42400 | 12.33416 | 1284 ft | 98 kts | 63° |
| 2026-05-07 13:03 | 45.42853 | 12.34139 | 1245 ft | 99 kts | 34° |
| 2026-05-07 13:03 | 45.43479 | 12.34489 | 1219 ft | 97 kts | 7° |
| 2026-05-07 13:04 | 45.44144 | 12.34488 | 1189 ft | 93 kts | 343° |
| 2026-05-07 13:04 | 45.44698 | 12.34090 | 1140 ft | 89 kts | 309° |
| 2026-05-07 13:04 | 45.44964 | 12.33346 | 1097 ft | 83 kts | 273° |
| 2026-05-07 13:04 | 45.44869 | 12.32548 | 1021 ft | 83 kts | 245° |
| 2026-05-07 13:05 | 45.44498 | 12.31927 | 1029 ft | 82 kts | 218° |
| 2026-05-07 13:05 | 45.43980 | 12.31592 | 962 ft | 84 kts | 196° |
| 2026-05-07 13:05 | 45.43408 | 12.31711 | 941 ft | 84 kts | 160° |
| 2026-05-07 13:05 | 45.43011 | 12.32351 | 884 ft | 92 kts | 115° |
| 2026-05-07 13:06 | 45.42925 | 12.33265 | 831 ft | 97 kts | 87° |
| 2026-05-07 13:06 | 45.43269 | 12.34081 | 840 ft | 97 kts | 44° |
| 2026-05-07 13:06 | 45.43879 | 12.34452 | 787 ft | 96 kts | 360° |
| 2026-05-07 13:06 | 45.44518 | 12.34163 | 735 ft | 96 kts | 312° |
| 2026-05-07 13:07 | 45.44776 | 12.33360 | 738 ft | 86 kts | 277° |
| 2026-05-07 13:07 | 45.44787 | 12.32538 | 696 ft | 84 kts | 258° |
| 2026-05-07 13:07 | 45.44493 | 12.31868 | 734 ft | 80 kts | 213° |
| 2026-05-07 13:07 | 45.43975 | 12.31688 | 711 ft | 82 kts | 180° |
| 2026-05-07 13:08 | 45.43413 | 12.31877 | 716 ft | 81 kts | 160° |
| 2026-05-07 13:08 | 45.42953 | 12.32380 | 697 ft | 86 kts | 137° |
| 2026-05-07 13:08 | 45.42666 | 12.33112 | 716 ft | 84 kts | 112° |
| 2026-05-07 13:08 | 45.42657 | 12.33942 | 713 ft | 88 kts | 89° |
| 2026-05-07 13:09 | 45.42670 | 12.34840 | 690 ft | 90 kts | 96° |
| 2026-05-07 13:09 | 45.42469 | 12.35639 | 685 ft | 83 kts | 125° |
| 2026-05-07 13:09 | 45.42207 | 12.36371 | 660 ft | 83 kts | 116° |
| 2026-05-07 13:09 | 45.42005 | 12.37129 | 677 ft | 82 kts | 121° |
| 2026-05-07 13:10 | 45.41751 | 12.37865 | 711 ft | 83 kts | 122° |
| 2026-05-07 13:10 | 45.41654 | 12.38644 | 782 ft | 81 kts | 91° |
| 2026-05-07 13:10 | 45.41926 | 12.39398 | 737 ft | 94 kts | 51° |
| 2026-05-07 13:10 | 45.42471 | 12.39834 | 751 ft | 89 kts | 9° |
| 2026-05-07 13:11 | 45.43069 | 12.39698 | 678 ft | 87 kts | 335° |
| 2026-05-07 13:11 | 45.43502 | 12.39196 | 655 ft | 77 kts | 292° |
| 2026-05-07 13:11 | 45.43461 | 12.38514 | 570 ft | 69 kts | 228° |
| 2026-05-07 13:11 | 45.43100 | 12.38061 | 574 ft | 75 kts | 213° |
| 2026-05-07 13:12 | 45.42661 | 12.37702 | 672 ft | 76 kts | 206° |
| 2026-05-07 13:12 | 45.42174 | 12.37320 | 726 ft | 81 kts | 213° |
| 2026-05-07 13:12 | 45.41778 | 12.36818 | 890 ft | 74 kts | 225° |
| 2026-05-07 13:12 | 45.41406 | 12.36287 | 934 ft | 78 kts | 221° |
| 2026-05-07 13:13 | 45.40943 | 12.35845 | 1024 ft | 81 kts | 212° |
| 2026-05-07 13:13 | 45.40478 | 12.35486 | 1125 ft | 77 kts | 210° |
| 2026-05-07 13:13 | 45.39989 | 12.35149 | 1149 ft | 82 kts | 208° |
| 2026-05-07 13:13 | 45.39462 | 12.34768 | 1196 ft | 88 kts | 211° |
| 2026-05-07 13:14 | 45.38932 | 12.34287 | 1201 ft | 90 kts | 217° |
| 2026-05-07 13:14 | 45.38445 | 12.33773 | 1269 ft | 85 kts | 217° |
| 2026-05-07 13:14 | 45.37959 | 12.33390 | 1453 ft | 71 kts | 206° |
| 2026-05-07 13:14 | 45.37447 | 12.33117 | 1425 ft | 87 kts | 204° |
| 2026-05-07 13:15 | 45.36874 | 12.32778 | 1384 ft | 91 kts | 207° |
| 2026-05-07 13:15 | 45.36274 | 12.32517 | 1434 ft | 89 kts | 183° |
| 2026-05-07 13:15 | 45.35825 | 12.33076 | 1473 ft | 99 kts | 106° |
| 2026-05-07 13:15 | 45.36067 | 12.34033 | 1398 ft | 111 kts | 46° |
| 2026-05-07 13:16 | 45.36730 | 12.34582 | 1212 ft | 113 kts | 21° |
| 2026-05-07 13:16 | 45.37410 | 12.35054 | 1110 ft | 102 kts | 30° |
| 2026-05-07 13:16 | 45.37965 | 12.35574 | 1044 ft | 91 kts | 33° |
| 2026-05-07 13:16 | 45.38492 | 12.36005 | 1010 ft | 88 kts | 27° |
| 2026-05-07 13:17 | 45.39036 | 12.36410 | 984 ft | 88 kts | 27° |
| 2026-05-07 13:17 | 45.39614 | 12.36812 | 855 ft | 94 kts | 27° |
| 2026-05-07 13:17 | 45.40204 | 12.37215 | 869 ft | 95 kts | 26° |
| 2026-05-07 13:17 | 45.40798 | 12.37651 | 773 ft | 99 kts | 29° |
| 2026-05-07 13:18 | 45.41364 | 12.38139 | 808 ft | 90 kts | 45° |
| 2026-05-07 13:18 | 45.41674 | 12.38835 | 857 ft | 79 kts | 70° |
| 2026-05-07 13:18 | 45.41954 | 12.39574 | 890 ft | 90 kts | 62° |
| 2026-05-07 13:18 | 45.42324 | 12.40309 | 909 ft | 93 kts | 55° |
| 2026-05-07 13:19 | 45.42748 | 12.41049 | 874 ft | 98 kts | 56° |
| 2026-05-07 13:19 | 45.43162 | 12.41794 | 880 ft | 94 kts | 56° |
| 2026-05-07 13:19 | 45.43628 | 12.42267 | 856 ft | 82 kts | 12° |
| 2026-05-07 13:19 | 45.44177 | 12.42045 | 784 ft | 86 kts | 310° |
| 2026-05-07 13:20 | 45.44251 | 12.41260 | 633 ft | 83 kts | 239° |
| 2026-05-07 13:20 | 45.43892 | 12.40652 | 411 ft | 70 kts | 223° |
| 2026-05-07 13:20 | 45.43602 | 12.40172 | 257 ft | 60 kts | 222° |
| 2026-05-07 13:20 | 45.43305 | 12.39690 | 102 ft | 70 kts | 225° |
| 2026-05-07 13:21 | 45.43032 | 12.39161 | 19 ft | 55 kts | 225° |
| 2026-05-07 13:21 | 45.42852 | 12.38834 | 11 ft | 32 kts | 237° |
| 2026-05-07 13:21 | 45.42769 | 12.38676 | 14 ft | 12 kts | 227° |
| 2026-05-07 13:21 | 45.42730 | 12.38606 | 15 ft | 7 kts | 233° |
| 2026-05-07 13:22 | 45.42704 | 12.38555 | 16 ft | 7 kts | 232° |
| 2026-05-07 13:22 | 45.42673 | 12.38497 | 18 ft | 8 kts | 233° |
| 2026-05-07 13:22 | 45.42664 | 12.38448 | 20 ft | 3 kts | 305° |
| 2026-05-07 13:22 | 45.42676 | 12.38416 | 21 ft | 7 kts | 293° |
| 2026-05-07 13:23 | 45.42695 | 12.38352 | 22 ft | 4 kts | 296° |
| 2026-05-07 13:23 | 45.42688 | 12.38319 | 23 ft | 3 kts | 212° |
| 2026-05-07 13:23 | 45.42685 | 12.38291 | 22 ft | 4 kts | 277° |
| 2026-05-07 13:23 | 45.42677 | 12.38287 | 23 ft | 0 kts | 159° |
| 2026-05-07 13:24 | 45.42667 | 12.38293 | 23 ft | 0 kts | 148° |